createdAt,value
2023-05-07T00:02:21.411Z,100.00
2023-05-07T00:04:48.288Z,100.00
2023-05-07T00:07:15.420Z,100.00
2023-05-07T00:09:42.485Z,100.00
2023-05-07T00:12:09.255Z,100.00
2023-05-07T00:14:36.044Z,100.00
2023-05-07T00:17:02.867Z,100.00
2023-05-07T00:19:29.623Z,100.00
2023-05-07T00:21:57.048Z,100.00
2023-05-07T00:24:23.811Z,100.00
2023-05-07T00:26:50.929Z,100.00
2023-05-07T00:29:17.952Z,100.00
2023-05-07T00:31:44.857Z,100.00
2023-05-07T00:34:11.648Z,100.00
2023-05-07T00:36:38.384Z,100.00
2023-05-07T00:39:05.776Z,100.00
2023-05-07T00:41:32.618Z,100.00
2023-05-07T00:43:59.755Z,100.00
2023-05-07T00:46:27.250Z,100.00
2023-05-07T00:48:54.835Z,100.00
2023-05-07T00:51:21.692Z,100.00
2023-05-07T00:53:49.061Z,100.00
2023-05-07T00:56:16.199Z,100.00
2023-05-07T00:58:43.224Z,100.00
2023-05-07T01:01:10.215Z,100.00
2023-05-07T01:03:37.079Z,100.00
2023-05-07T01:06:06.128Z,100.00
2023-05-07T01:08:36.139Z,100.00
2023-05-07T01:11:03.231Z,100.00
2023-05-07T01:13:30.711Z,100.00
2023-05-07T01:15:57.470Z,100.00
2023-05-07T01:18:24.558Z,100.00
2023-05-07T01:20:51.613Z,100.00
2023-05-07T01:23:19.673Z,100.00
2023-05-07T01:25:54.217Z,100.00
2023-05-07T01:28:21.317Z,100.00
2023-05-07T01:30:56.742Z,100.00
2023-05-07T01:33:24.447Z,100.00
2023-05-07T01:35:55.055Z,100.00
2023-05-07T01:38:24.674Z,100.00
2023-05-07T01:40:51.811Z,100.00
2023-05-07T01:43:18.752Z,100.00
2023-05-07T01:45:46.738Z,100.00
2023-05-07T01:48:15.373Z,100.00
2023-05-07T01:50:43.061Z,100.00
2023-05-07T01:53:10.028Z,100.00
2023-05-07T01:55:38.012Z,100.00
2023-05-07T01:58:05.746Z,100.00
2023-05-07T02:00:33.230Z,100.00
2023-05-07T02:03:00.276Z,100.00
2023-05-07T02:05:27.137Z,100.00
2023-05-07T02:07:53.898Z,100.00
2023-05-07T02:10:20.799Z,100.00
2023-05-07T02:12:47.684Z,100.00
2023-05-07T02:15:14.454Z,100.00
2023-05-07T02:18:00.480Z,100.00
2023-05-07T02:20:27.408Z,100.00
2023-05-07T02:22:54.178Z,100.00
2023-05-07T02:25:20.939Z,100.00
2023-05-07T02:27:47.783Z,100.00
2023-05-07T02:30:15.460Z,100.00
2023-05-07T02:32:42.330Z,100.00
2023-05-07T02:35:09.482Z,100.00
2023-05-07T02:37:36.418Z,100.00
2023-05-07T02:40:04.679Z,100.00
2023-05-07T02:42:31.678Z,100.00
2023-05-07T02:44:58.465Z,100.00
2023-05-07T02:47:28.201Z,100.00
2023-05-07T02:49:56.089Z,100.00
2023-05-07T02:52:23.362Z,100.00
2023-05-07T02:54:50.146Z,100.00
2023-05-07T02:57:17.049Z,100.00
2023-05-07T02:59:44.120Z,100.00
2023-05-07T03:02:11.340Z,100.00
2023-05-07T03:04:39.408Z,100.00
2023-05-07T03:07:06.306Z,100.00
2023-05-07T03:09:33.220Z,100.00
2023-05-07T03:12:00.058Z,100.00
2023-05-07T03:14:26.936Z,100.00
2023-05-07T03:16:54.041Z,100.00
2023-05-07T03:19:20.968Z,100.00
2023-05-07T03:21:47.736Z,100.00
2023-05-07T03:24:14.489Z,100.00
2023-05-07T03:26:41.295Z,100.00
2023-05-07T03:29:08.120Z,100.00
2023-05-07T03:31:35.080Z,100.00
2023-05-07T03:34:01.971Z,100.00
2023-05-07T03:36:28.965Z,100.00
2023-05-07T03:38:55.839Z,100.00
2023-05-07T03:41:22.682Z,100.00
2023-05-07T03:43:49.468Z,100.00
2023-05-07T03:46:16.388Z,100.00
2023-05-07T03:48:43.232Z,100.00
2023-05-07T03:51:10.127Z,100.00
2023-05-07T03:53:36.869Z,100.00
2023-05-07T03:56:03.872Z,100.00
2023-05-07T03:58:30.859Z,100.00
2023-05-07T04:00:57.680Z,100.00
2023-05-07T04:03:24.528Z,100.00
2023-05-07T04:05:51.375Z,100.00
2023-05-07T04:08:18.175Z,100.00
2023-05-07T04:10:44.975Z,100.00
2023-05-07T04:13:11.853Z,100.00
2023-05-07T04:15:38.672Z,100.00
2023-05-07T04:18:05.585Z,100.00
2023-05-07T04:20:37.468Z,100.00
2023-05-07T04:23:04.451Z,100.00
2023-05-07T04:25:31.771Z,100.00
2023-05-07T04:27:58.528Z,100.00
2023-05-07T04:30:25.546Z,100.00
2023-05-07T04:32:53.193Z,100.00
2023-05-07T04:35:20.421Z,100.00
2023-05-07T04:37:47.177Z,100.00
2023-05-07T04:40:14.235Z,100.00
2023-05-07T04:42:41.124Z,100.00
2023-05-07T04:45:08.180Z,100.00
2023-05-07T04:47:34.975Z,100.00
2023-05-07T04:50:01.802Z,100.00
2023-05-07T04:52:28.608Z,100.00
2023-05-07T04:54:55.399Z,100.00
2023-05-07T04:57:22.166Z,100.00
2023-05-07T04:59:49.128Z,100.00
2023-05-07T05:02:17.146Z,100.00
2023-05-07T05:04:45.771Z,100.00
2023-05-07T05:07:12.515Z,100.00
2023-05-07T05:09:39.388Z,100.00
2023-05-07T05:12:08.462Z,100.00
2023-05-07T05:14:35.266Z,100.00
2023-05-07T05:17:01.979Z,100.00
2023-05-07T05:19:28.725Z,100.00
2023-05-07T05:21:55.527Z,100.00
2023-05-07T05:24:22.322Z,100.00
2023-05-07T05:26:49.320Z,100.00
2023-05-07T05:29:16.069Z,100.00
2023-05-07T05:31:43.012Z,100.00
2023-05-07T05:34:09.793Z,100.00
2023-05-07T05:36:36.663Z,100.00
2023-05-07T05:39:03.466Z,100.00
2023-05-07T05:41:30.323Z,100.00
2023-05-07T05:43:57.253Z,100.00
2023-05-07T05:46:24.156Z,100.00
2023-05-07T05:48:50.926Z,100.00
2023-05-07T05:51:17.780Z,100.00
2023-05-07T05:53:44.719Z,100.00
2023-05-07T05:56:11.573Z,100.00
2023-05-07T05:58:40.953Z,100.00
2023-05-07T06:01:07.900Z,100.00
2023-05-07T06:03:34.704Z,100.00
2023-05-07T06:06:02.536Z,100.00
2023-05-07T06:08:32.124Z,100.00
2023-05-07T06:10:59.879Z,100.00
2023-05-07T06:13:26.976Z,100.00
2023-05-07T06:15:53.750Z,100.00
2023-05-07T06:18:20.594Z,100.00
2023-05-07T06:20:47.315Z,100.00
2023-05-07T06:23:17.213Z,100.00
2023-05-07T06:25:51.067Z,100.00
2023-05-07T06:28:17.903Z,100.00
2023-05-07T06:30:44.694Z,100.00
2023-05-07T06:33:11.682Z,100.00
2023-05-07T06:35:38.637Z,100.00
2023-05-07T06:38:05.456Z,100.00
2023-05-07T06:40:32.140Z,100.00
2023-05-07T06:42:58.836Z,100.00
2023-05-07T06:45:26.367Z,100.00
2023-05-07T06:47:53.206Z,100.00
2023-05-07T06:50:20.154Z,100.00
2023-05-07T06:52:46.935Z,100.00
2023-05-07T06:55:13.718Z,100.00
2023-05-07T06:57:40.574Z,98.63
2023-05-07T07:00:10.455Z,100.00
2023-05-07T07:02:37.991Z,91.70
2023-05-07T07:05:05.291Z,93.88
2023-05-07T07:07:32.192Z,100.00
2023-05-07T07:09:58.889Z,100.00
2023-05-07T07:12:27.180Z,88.33
2023-05-07T07:14:55.032Z,90.46
2023-05-07T07:17:22.043Z,93.30
2023-05-07T07:19:48.887Z,90.48
2023-05-07T07:22:15.646Z,89.31
2023-05-07T07:24:42.449Z,90.83
2023-05-07T07:27:09.343Z,86.84
2023-05-07T07:29:36.255Z,88.25
2023-05-07T07:32:03.193Z,93.52
2023-05-07T07:34:30.014Z,91.23
2023-05-07T07:36:57.368Z,80.88
2023-05-07T07:39:24.207Z,77.43
2023-05-07T07:41:51.090Z,76.47
2023-05-07T07:44:18.471Z,77.19
2023-05-07T07:46:45.291Z,79.08
2023-05-07T07:49:12.106Z,80.19
2023-05-07T07:51:38.942Z,85.89
2023-05-07T07:54:05.869Z,84.57
2023-05-07T07:56:36.636Z,92.92
2023-05-07T07:59:03.800Z,99.94
2023-05-07T08:01:34.154Z,89.48
2023-05-07T08:04:01.449Z,94.50
2023-05-07T08:06:28.302Z,98.44
2023-05-07T08:08:56.506Z,96.20
2023-05-07T08:11:23.330Z,94.60
2023-05-07T08:13:50.196Z,97.52
2023-05-07T08:16:17.042Z,93.87
2023-05-07T08:18:43.775Z,95.49
2023-05-07T08:21:10.581Z,97.20
2023-05-07T08:23:37.441Z,88.14
2023-05-07T08:26:04.204Z,84.65
2023-05-07T08:28:31.131Z,85.02
2023-05-07T08:30:57.980Z,80.46
2023-05-07T08:33:24.870Z,81.92
2023-05-07T08:35:51.837Z,82.67
2023-05-07T08:38:18.587Z,80.46
2023-05-07T08:40:45.733Z,88.96
2023-05-07T08:43:18.430Z,81.35
2023-05-07T08:45:46.873Z,80.80
2023-05-07T08:48:18.026Z,85.25
2023-05-07T08:50:44.872Z,88.44
2023-05-07T08:53:11.763Z,84.17
2023-05-07T08:55:38.645Z,82.68
2023-05-07T08:58:05.523Z,76.72
2023-05-07T09:00:35.460Z,72.06
2023-05-07T09:03:02.800Z,69.41
2023-05-07T09:05:29.695Z,73.48
2023-05-07T09:07:58.473Z,68.01
2023-05-07T09:10:25.363Z,74.39
2023-05-07T09:12:52.262Z,71.07
2023-05-07T09:15:19.899Z,71.05
2023-05-07T09:17:46.864Z,65.41
2023-05-07T09:20:13.959Z,65.34
2023-05-07T09:22:40.868Z,67.58
2023-05-07T09:25:51.496Z,64.47
2023-05-07T09:28:42.975Z,61.35
2023-05-07T09:31:39.761Z,61.91
2023-05-07T09:38:16.156Z,60.18
2023-05-07T09:44:25.260Z,54.78
2023-05-07T09:46:58.090Z,55.41
2023-05-07T10:01:03.873Z,58.13
2023-05-07T10:06:29.055Z,57.58
2023-05-07T10:13:29.754Z,61.55
2023-05-07T10:15:58.825Z,61.62
2023-05-07T10:52:25.034Z,58.31
2023-05-07T10:55:11.573Z,57.28
2023-05-07T10:57:39.017Z,58.01
2023-05-07T11:00:39.096Z,60.79
2023-05-07T11:03:08.800Z,57.61
2023-05-07T11:05:38.235Z,60.58
2023-05-07T11:08:06.591Z,61.07
2023-05-07T11:10:49.405Z,58.19
2023-05-07T11:13:17.271Z,61.75
2023-05-07T11:15:47.222Z,63.81
2023-05-07T11:18:19.696Z,58.50
2023-05-07T11:21:00.138Z,57.32
2023-05-07T11:23:36.498Z,58.41
2023-05-07T11:26:11.648Z,55.94
2023-05-07T11:28:43.436Z,56.04
2023-05-07T11:31:11.461Z,57.10
2023-05-07T11:33:39.929Z,53.58
2023-05-07T11:36:10.001Z,55.45
2023-05-07T11:38:38.624Z,57.41
2023-05-07T11:41:06.920Z,62.73
2023-05-07T11:43:34.641Z,55.46
2023-05-07T11:46:11.920Z,55.22
2023-05-07T11:48:40.654Z,56.31
2023-05-07T11:51:10.361Z,53.79
2023-05-07T11:53:44.381Z,61.09
2023-05-07T11:56:13.081Z,56.49
2023-05-07T11:58:42.946Z,56.00
2023-05-07T12:01:11.901Z,59.16
2023-05-07T12:03:47.063Z,64.53
2023-05-07T12:06:17.496Z,59.84
2023-05-07T12:08:47.897Z,54.02
2023-05-07T12:11:25.514Z,58.86
2023-05-07T12:13:53.489Z,57.78
2023-05-07T12:16:21.131Z,56.29
2023-05-07T12:18:49.326Z,51.01
2023-05-07T12:21:19.494Z,55.03
2023-05-07T12:23:47.186Z,57.84
2023-05-07T12:26:14.452Z,55.22
2023-05-07T12:28:44.841Z,54.64
2023-05-07T12:31:12.484Z,54.64
2023-05-07T12:33:41.478Z,52.78
2023-05-07T12:36:09.913Z,54.55
2023-05-07T12:38:42.497Z,52.41
2023-05-07T12:41:12.561Z,58.43
2023-05-07T12:43:39.983Z,59.87
2023-05-07T12:46:09.058Z,57.86
2023-05-07T12:48:44.785Z,59.87
2023-05-07T12:51:14.012Z,60.79
2023-05-07T12:53:45.761Z,60.60
2023-05-07T12:56:12.915Z,61.02
2023-05-07T12:58:40.290Z,58.84
2023-05-07T13:01:11.763Z,62.81
2023-05-07T13:03:40.291Z,61.43
2023-05-07T13:06:11.505Z,59.59
2023-05-07T13:08:44.520Z,57.85
2023-05-07T13:11:14.705Z,60.80
2023-05-07T13:13:42.910Z,59.52
2023-05-07T13:16:12.350Z,59.42
2023-05-07T13:18:41.426Z,63.99
2023-05-07T13:21:09.081Z,61.81
2023-05-07T13:23:36.395Z,57.61
2023-05-07T13:26:11.529Z,58.76
2023-05-07T13:28:45.818Z,58.60
2023-05-07T13:31:13.200Z,62.12
2023-05-07T13:33:40.810Z,59.19
2023-05-07T13:36:08.653Z,61.32
2023-05-07T13:38:35.909Z,60.73
2023-05-07T13:41:03.287Z,61.33
2023-05-07T13:43:30.500Z,59.34
2023-05-07T13:45:57.881Z,59.31
2023-05-07T13:48:25.100Z,59.54
2023-05-07T13:50:52.514Z,56.92
2023-05-07T13:53:20.183Z,59.51
2023-05-07T13:55:47.802Z,54.61
2023-05-07T13:58:15.344Z,55.15
2023-05-07T14:00:42.579Z,57.44
2023-05-07T14:03:09.981Z,61.72
2023-05-07T14:05:37.711Z,61.21
2023-05-07T14:08:21.760Z,58.71
2023-05-07T14:10:48.773Z,58.31
2023-05-07T14:13:17.316Z,58.16
2023-05-07T14:15:47.708Z,60.42
2023-05-07T14:18:14.900Z,60.41
2023-05-07T14:20:42.368Z,60.37
2023-05-07T14:23:09.236Z,63.60
2023-05-07T14:25:36.415Z,61.76
2023-05-07T14:28:03.287Z,59.48
2023-05-07T14:30:30.556Z,57.87
2023-05-07T14:32:57.746Z,64.32
2023-05-07T14:35:25.029Z,60.21
2023-05-07T14:37:52.077Z,59.49
2023-05-07T14:40:19.507Z,57.64
2023-05-07T14:42:46.547Z,58.78
2023-05-07T14:45:15.143Z,58.76
2023-05-07T14:47:42.696Z,59.29
2023-05-07T14:50:10.540Z,64.21
2023-05-07T14:52:37.601Z,63.28
2023-05-07T14:55:05.501Z,62.05
2023-05-07T14:57:36.396Z,63.32
2023-05-07T15:00:06.728Z,62.88
2023-05-07T15:02:34.015Z,64.69
2023-05-07T15:05:01.197Z,65.57
2023-05-07T15:07:29.999Z,68.14
2023-05-07T15:09:57.760Z,67.80
2023-05-07T15:12:24.900Z,70.50
2023-05-07T15:14:52.999Z,68.54
2023-05-07T15:17:20.176Z,69.88
2023-05-07T15:19:47.556Z,67.16
2023-05-07T15:22:14.666Z,69.01
2023-05-07T15:24:42.495Z,64.60
2023-05-07T15:27:09.689Z,69.83
2023-05-07T15:29:36.826Z,68.95
2023-05-07T15:32:04.077Z,68.92
2023-05-07T15:34:32.473Z,68.98
2023-05-07T15:36:59.869Z,67.25
2023-05-07T15:39:29.930Z,67.12
2023-05-07T15:41:57.305Z,68.40
2023-05-07T15:44:29.517Z,66.44
2023-05-07T15:46:56.404Z,66.01
2023-05-07T15:49:23.469Z,66.62
2023-05-07T15:51:52.206Z,73.02
2023-05-07T15:54:21.288Z,78.74
2023-05-07T15:56:48.666Z,72.88
2023-05-07T15:59:17.278Z,75.41
2023-05-07T16:01:45.841Z,74.72
2023-05-07T16:04:12.828Z,73.71
2023-05-07T16:06:40.129Z,73.43
2023-05-07T16:09:07.383Z,78.22
2023-05-07T16:11:34.944Z,73.23
2023-05-07T16:14:02.799Z,78.71
2023-05-07T16:16:33.199Z,80.24
2023-05-07T16:19:00.604Z,78.92
2023-05-07T16:21:29.614Z,78.28
2023-05-07T16:23:57.136Z,76.96
2023-05-07T16:26:24.028Z,75.38
2023-05-07T16:28:52.512Z,78.79
2023-05-07T16:31:21.626Z,81.30
2023-05-07T16:33:49.101Z,82.88
2023-05-07T16:36:16.367Z,80.37
2023-05-07T16:38:43.610Z,77.42
2023-05-07T16:41:11.338Z,75.92
2023-05-07T16:43:38.587Z,73.53
2023-05-07T16:46:05.715Z,76.21
2023-05-07T16:48:32.912Z,77.79
2023-05-07T16:51:00.185Z,73.38
2023-05-07T16:53:27.263Z,76.91
2023-05-07T16:55:56.715Z,78.09
2023-05-07T16:58:24.219Z,76.68
2023-05-07T17:00:51.553Z,78.09
2023-05-07T17:03:19.903Z,78.02
2023-05-07T17:05:47.219Z,78.95
2023-05-07T17:08:14.688Z,82.13
2023-05-07T17:10:43.827Z,81.85
2023-05-07T17:13:11.611Z,86.25
2023-05-07T17:15:39.204Z,85.66
2023-05-07T17:18:06.616Z,87.87
2023-05-07T17:20:34.684Z,90.23
2023-05-07T17:23:02.250Z,92.77
2023-05-07T17:25:29.264Z,95.24
2023-05-07T17:27:56.169Z,97.70
2023-05-07T17:30:23.368Z,99.68
2023-05-07T17:32:50.603Z,100.00
2023-05-07T17:35:18.115Z,100.00
2023-05-07T17:37:52.880Z,100.00
2023-05-07T17:40:22.859Z,100.00
2023-05-07T17:42:52.365Z,100.00
2023-05-07T17:45:21.124Z,100.00
2023-05-07T17:47:48.461Z,100.00
2023-05-07T17:50:15.455Z,100.00
2023-05-07T17:52:43.343Z,100.00
2023-05-07T17:55:10.724Z,100.00
2023-05-07T17:57:38.813Z,100.00
2023-05-07T18:00:10.579Z,100.00
2023-05-07T18:02:38.737Z,100.00
2023-05-07T18:05:06.622Z,100.00
2023-05-07T18:07:34.105Z,100.00
2023-05-07T18:10:01.413Z,100.00
2023-05-07T18:12:28.698Z,100.00
2023-05-07T18:14:55.834Z,100.00
2023-05-07T18:17:24.706Z,100.00
2023-05-07T18:19:54.702Z,100.00
2023-05-07T18:22:22.791Z,100.00
2023-05-07T18:24:50.925Z,100.00
2023-05-07T18:27:28.980Z,100.00
2023-05-07T18:29:56.258Z,100.00
2023-05-07T18:32:23.209Z,100.00
2023-05-07T18:34:50.663Z,100.00
2023-05-07T18:37:18.557Z,100.00
2023-05-07T18:39:47.143Z,100.00
2023-05-07T18:42:14.756Z,100.00
2023-05-07T18:44:42.040Z,100.00
2023-05-07T18:47:10.202Z,100.00
2023-05-07T18:49:37.549Z,100.00
2023-05-07T18:52:11.475Z,100.00
2023-05-07T18:54:38.790Z,100.00
2023-05-07T18:57:09.893Z,100.00
2023-05-07T18:59:37.921Z,100.00
2023-05-07T19:02:05.482Z,100.00
2023-05-07T19:04:33.187Z,100.00
2023-05-07T19:07:00.277Z,100.00
2023-05-07T19:09:30.954Z,100.00
2023-05-07T19:11:59.232Z,100.00
2023-05-07T19:14:28.180Z,100.00
2023-05-07T19:16:55.561Z,100.00
2023-05-07T19:19:22.819Z,100.00
2023-05-07T19:21:50.379Z,100.00
2023-05-07T19:24:17.709Z,100.00
2023-05-07T19:26:45.679Z,100.00
2023-05-07T19:29:18.025Z,100.00
2023-05-07T19:31:46.335Z,100.00
2023-05-07T19:34:16.654Z,100.00
2023-05-07T19:36:44.236Z,100.00
2023-05-07T19:39:12.930Z,100.00
2023-05-07T19:41:42.411Z,100.00
2023-05-07T19:44:09.643Z,100.00
2023-05-07T19:46:37.454Z,100.00
2023-05-07T19:49:04.875Z,100.00
2023-05-07T19:51:33.739Z,100.00
2023-05-07T19:54:02.634Z,100.00
2023-05-07T19:56:29.813Z,100.00
2023-05-07T19:58:56.927Z,100.00
2023-05-07T20:01:24.472Z,100.00
2023-05-07T20:03:51.824Z,100.00
2023-05-07T20:06:19.974Z,100.00
2023-05-07T20:08:49.903Z,100.00
2023-05-07T20:11:16.893Z,100.00
2023-05-07T20:13:44.669Z,100.00
2023-05-07T20:16:12.260Z,100.00
2023-05-07T20:18:40.033Z,100.00
2023-05-07T20:21:07.444Z,100.00
2023-05-07T20:23:34.552Z,100.00
2023-05-07T20:26:01.479Z,100.00
2023-05-07T20:28:29.290Z,100.00
2023-05-07T20:30:56.681Z,100.00
2023-05-07T20:33:27.384Z,100.00
2023-05-07T20:35:58.620Z,100.00
2023-05-07T20:38:27.662Z,100.00
2023-05-07T20:40:54.842Z,100.00
2023-05-07T20:43:21.700Z,100.00
2023-05-07T20:45:48.424Z,100.00
2023-05-07T20:48:15.179Z,100.00
2023-05-07T20:50:41.965Z,100.00
2023-05-07T20:53:08.695Z,100.00
2023-05-07T20:55:35.409Z,100.00
2023-05-07T20:58:02.234Z,100.00
2023-05-07T21:00:28.995Z,100.00
2023-05-07T21:02:55.780Z,100.00
2023-05-07T21:05:22.533Z,100.00
2023-05-07T21:07:49.293Z,100.00
2023-05-07T21:10:16.230Z,100.00
2023-05-07T21:12:42.912Z,100.00
2023-05-07T21:15:10.680Z,100.00
2023-05-07T21:17:37.563Z,100.00
2023-05-07T21:20:04.670Z,100.00
2023-05-07T21:22:31.596Z,100.00
2023-05-07T21:24:58.238Z,100.00
2023-05-07T21:27:24.969Z,100.00
2023-05-07T21:29:51.711Z,100.00
2023-05-07T21:32:18.359Z,100.00
2023-05-07T21:34:46.391Z,100.00
2023-05-07T21:37:14.175Z,100.00
2023-05-07T21:39:40.890Z,100.00
2023-05-07T21:42:08.733Z,100.00
2023-05-07T21:44:35.403Z,100.00
2023-05-07T21:47:02.072Z,100.00
2023-05-07T21:49:28.957Z,100.00
2023-05-07T21:51:56.290Z,100.00
2023-05-07T21:54:23.085Z,100.00
2023-05-07T21:56:50.241Z,100.00
2023-05-07T21:59:17.116Z,100.00
2023-05-07T22:01:43.941Z,100.00
2023-05-07T22:04:11.252Z,100.00
2023-05-07T22:06:37.991Z,100.00
2023-05-07T22:09:04.757Z,100.00
2023-05-07T22:11:31.519Z,100.00
2023-05-07T22:13:58.173Z,100.00
2023-05-07T22:16:24.950Z,100.00
2023-05-07T22:18:51.774Z,100.00
2023-05-07T22:21:18.470Z,100.00
2023-05-07T22:23:45.183Z,100.00
2023-05-07T22:26:13.233Z,100.00
2023-05-07T22:28:40.630Z,100.00
2023-05-07T22:31:07.456Z,100.00
2023-05-07T22:33:34.198Z,100.00
2023-05-07T22:36:01.103Z,100.00
2023-05-07T22:38:27.850Z,100.00
2023-05-07T22:40:54.588Z,100.00
2023-05-07T22:43:21.307Z,100.00
2023-05-07T22:45:48.092Z,100.00
2023-05-07T22:48:14.864Z,100.00
2023-05-07T22:50:41.677Z,100.00
2023-05-07T22:53:08.366Z,100.00
2023-05-07T22:55:35.225Z,100.00
2023-05-07T22:58:01.999Z,100.00
2023-05-07T23:03:34.046Z,100.00
2023-05-07T23:06:00.841Z,100.00
2023-05-07T23:08:27.688Z,100.00
2023-05-07T23:10:54.429Z,100.00
2023-05-07T23:13:21.182Z,100.00
2023-05-07T23:15:48.023Z,100.00
2023-05-07T23:18:14.784Z,100.00
2023-05-07T23:20:41.490Z,100.00
2023-05-07T23:23:08.266Z,100.00
2023-05-07T23:25:35.021Z,100.00
2023-05-07T23:28:01.754Z,100.00
2023-05-07T23:30:28.616Z,100.00
2023-05-07T23:32:55.523Z,100.00
2023-05-07T23:35:22.414Z,100.00
2023-05-07T23:37:49.232Z,100.00
2023-05-07T23:40:17.549Z,100.00
2023-05-07T23:42:44.276Z,100.00
2023-05-07T23:45:11.434Z,100.00
2023-05-07T23:47:38.204Z,100.00
2023-05-07T23:50:05.419Z,100.00
2023-05-07T23:52:32.108Z,100.00
2023-05-07T23:54:58.804Z,100.00
2023-05-07T23:57:25.497Z,100.00
2023-05-07T23:59:52.181Z,100.00
